AirNav   Air Wisconsin Up To $57,000 Bonus
 
 1639 users online  

55Y Rushford Municipal-Robert W Bunke Field Airport
Rushford, Minnesota, USA

GOING TO RUSHFORD?


FAA INFORMATION EFFECTIVE 22 APRIL 2021

Location

FAA Identifier: 55Y
Lat/Long: 43-48-56.9700N 091-49-48.3420W
43-48.949500N 091-49.805700W
43.8158250,-91.8300950
(estimated)
Elevation: 1211 ft. / 369.1 m (surveyed)
Variation: 01E (1995)
From city: 3 miles W of RUSHFORD, MN
Time zone: UTC -5 (UTC -6 during Standard Time)
Zip code: 55971

Airport Operations

Airport use: Open to the public
Activation date: 09/1975
Control tower: no
ARTCC: MINNEAPOLIS CENTER
FSS: PRINCETON FLIGHT SERVICE STATION
NOTAMs facility: PNM (NOTAM-D service available)
Attendance: UNATNDD
Wind indicator: lighted
Segmented circle: no
Lights: ACTVT PAPI RWY 16 & 34; MIRL RWY 16/34 - CTAF.
Beacon: white-green (lighted land airport)
Operates sunset to sunrise.

Airport Communications

CTAF: 122.9
ROCHESTER APPROACH: 119.8 [0500-2300]
ROCHESTER DEPARTURE: 119.8 [0500-2300]
WX AWOS-3 at ONA (17 nm N): 118.075 (507-453-2991)
WX AWOS-3 at FKA (17 nm SW): 118.550 (507-765-2182)
  • APCH/DEP SVC PRVDD BY MINNEAPOLIS ARTCC ON FREQS 132.35/307.3 (ROCHESTER RCAG) WHEN ROCHESTER APCH CLSD.

Nearby radio navigation aids

VOR radial/distance  VOR name  Freq  Var
ODIr249/16.7NODINE VORTAC117.9001E
RSTr082/33.3ROCHESTER VOR/DME112.0005E

Airport Services

Fuel available: 100LL
SELF SERVICE FUEL AVBL WITH CREDIT CARD.
Parking: tiedowns
Airframe service: NONE
Powerplant service: NONE
Bottled oxygen: NONE
Bulk oxygen: NONE

Runway Information

Runway 16/34

Dimensions: 3200 x 60 ft. / 975 x 18 m
Surface: asphalt, in fair condition
Runway edge lights: medium intensity
RUNWAY 16  RUNWAY 34
Latitude: 43-49.199550N43-48.699883N
Longitude: 091-49.921217W091-49.691417W
Elevation: 1211.0 ft.1183.0 ft.
Traffic pattern: leftleft
Runway heading: 161 magnetic, 162 true341 magnetic, 342 true
Markings: nonprecision, in good conditionnonprecision, in good condition
Visual slope indicator: 2-light PAPI on left (3.00 degrees glide path)2-light PAPI on left (3.00 degrees glide path)
Touchdown point: no, no lightsyes, no lights

Airport Ownership and Management from official FAA records

Ownership: Publicly-owned
Owner: CITY OF RUSHFORD
101 N MILL ST, PO BOX 430
RUSHFORD, MN 55971
Phone 507-864-2444
Manager: TONY CHLADEK
101 N MILL ST
RUSHFORD, MN 55971
Phone (507) 864-2444
EMAIL ADDRESS: RUSHFORD@ACEGROUP.CC (ALL LOWER CASE)

Airport Operational Statistics

Aircraft based on the field: 11
Single engine airplanes: 10
Helicopters: 1
    
Aircraft operations: avg 38/week *
60% local general aviation
40% transient general aviation
* for 12-month period ending 30 April 2019

Additional Remarks

CAUTION DEER ON & INVOF AIRPORT.
FOR CD CTC ROCHESTER APCH AT 507-424-8111.

Instrument Procedures

NOTE: All procedures below are presented as PDF files. If you need a reader for these files, you should download the free Adobe Reader.

NOT FOR NAVIGATION. Please procure official charts for flight.
FAA instrument procedures published for use from 22 April 2021 at 0901Z to 20 May 2021 at 0900z.

 
IAPs - Instrument Approach Procedures
RNAV (GPS) RWY 34   download (208KB)
VOR-A   download (181KB)
NOTE: Special Take-Off Minimums/Departure Procedures apply   download (267KB)

Other nearby airports with instrument procedures:

KONA - Winona Municipal Airport-Max Conrad Field (17 nm N)
KFKA - Fillmore County Airport (17 nm SW)
KCHU - Houston County Airport (19 nm SE)
KLSE - La Crosse Regional Airport (25 nm E)
KRST - Rochester International Airport (30 nm W)
 
Loc | Ops | Rwys | IFR | FBO | Links
Com | Nav | Svcs | Stats | Notes
Area around 55Y (Rushford Municipal-Robert W Bunke Field Airport)
 
Road maps at: MapQuest Bing Google
 
Aerial photo
WARNING: Photo may not be current or correct
Aerial photo of 55Y (Rushford Municipal-Robert W Bunke Field Airport)
Photo by Russ Marsolek

Do you have a better or more recent aerial photo of Rushford Municipal-Robert W Bunke Field Airport that you would like to share? If so, please send us your photo.

 
Sectional chart

 
Airport distance calculator
Flying to Rushford Municipal-Robert W Bunke Field Airport? Find the distance to fly.

From to 55Y

Sunrise and sunset
Times for 22-Apr-2021
 Local
(UTC-5)
 Zulu
(UTC)
Morning civil twilight05:4310:43
Sunrise06:1411:14
Sunset19:5800:58
Evening civil twilight20:2901:29

Current date and time
Zulu (UTC)  22-Apr-2021 15:57:25
Local (UTC-5)  22-Apr-2021 10:57:25
 
METAR
KONA 
16nm N 
221555Z AUTO 31009KT 10SM CLR 12/M02 A3002 RMK AO2
KFKA 
17nm SW 
221535Z AUTO 30015G18KT 10SM CLR 11/M05 A3004 RMK AO2 T01121048
KLSE 
25nm E 
221553Z 29006KT 10SM CLR 12/M04 A3002 RMK AO2 SLP171 T01171039
KRST 
29nm W 
221554Z 28016G24KT 10SM CLR 12/M05 A3003 RMK AO2 PK WND 27027/1526 SLP177 T01221050
K9MN 
31nm NW 
221555Z AUTO 26012G21KT 230V320 10SM CLR 11/M05 A3002 RMK AO1 T01091052
TAF
KLSE 
25nm E 
221120Z 2212/2312 15004KT P6SM SCT080 FM221400 22006KT P6SM SKC FM221700 26011G18KT P6SM SKC FM230000 19007KT P6SM SKC FM230900 17007KT P6SM BKN100
KRST 
29nm W 
221327Z 2213/2312 26014KT P6SM SKC FM221600 27015G24KT P6SM SKC FM221900 27014G20KT P6SM SKC FM230000 21008KT P6SM SCT100 FM230700 20009KT P6SM BKN080 FM231000 20010KT P6SM -SHRA BKN025
NOTAMs
Click for the latest NOTAMs
NOTAMs are issued by the DoD/FAA and will open in a separate window not controlled by AirNav.

 

 
 

FBO, Fuel Providers, and Aircraft Ground Support

  
 Business Name 
 
 Contact 
 
 Services / Description 
 
Fuel Prices
 
Comments
  
 City of Rushford
507-864-2444
[web site]
[email]
Airport management, Aviation fuel, Aircraft parking (ramp or tiedown), Hangars, Passenger terminal and lounge, Rental cars delivered, Courtesy transportation, ...

More info about City of Rushford
100LL
SS $4.35 
 Updated 22-Nov-2019
 
   1 read write
SS=Self service
Update Fuel Prices
 

Would you like to see your business listed on this page?

 If your business provides an interesting product or service to pilots, flight crews, aircraft, or users of the Rushford Municipal-Robert W Bunke Field Airport, you should consider listing it here.  To start the listing process, click on the button below
 
Add a business
 

Other Pages about Rushford Municipal-Robert W Bunke Field Airport

www.rushford.govoffice.com/index.asp?SEC=E4507E08-19A6-48C3-B18E-862D748FF6CB&DE=66036454-0F79-4486-AA7A-E3D9801C3CB3&Type=B_BASIC
 
Update a link
 
Copyright © AirNav, LLC. All rights reserved. Privacy Policy  Contact